sensor_id;sensor_type;location;lat;lon;timestamp;temperature;humidity
43808;DHT22;29438;50.664;10.098;2023-05-19T00:01:34;6.70;81.70
43808;DHT22;29438;50.664;10.098;2023-05-19T00:04:02;6.60;82.10
43808;DHT22;29438;50.664;10.098;2023-05-19T00:06:32;6.40;82.20
43808;DHT22;29438;50.664;10.098;2023-05-19T00:09:05;6.30;82.50
43808;DHT22;29438;50.664;10.098;2023-05-19T00:11:35;6.20;82.70
43808;DHT22;29438;50.664;10.098;2023-05-19T00:14:03;6.00;82.80
43808;DHT22;29438;50.664;10.098;2023-05-19T00:16:30;5.90;83.20
43808;DHT22;29438;50.664;10.098;2023-05-19T00:19:00;5.80;83.30
43808;DHT22;29438;50.664;10.098;2023-05-19T00:21:26;5.80;83.60
43808;DHT22;29438;50.664;10.098;2023-05-19T00:23:52;5.70;83.70
43808;DHT22;29438;50.664;10.098;2023-05-19T00:26:17;5.50;83.80
43808;DHT22;29438;50.664;10.098;2023-05-19T00:28:43;5.40;83.90
43808;DHT22;29438;50.664;10.098;2023-05-19T00:31:09;5.40;84.10
43808;DHT22;29438;50.664;10.098;2023-05-19T00:33:34;5.40;84.10
43808;DHT22;29438;50.664;10.098;2023-05-19T00:36:01;5.30;84.40
43808;DHT22;29438;50.664;10.098;2023-05-19T00:38:31;5.20;84.80
43808;DHT22;29438;50.664;10.098;2023-05-19T00:40:58;5.20;85.00
43808;DHT22;29438;50.664;10.098;2023-05-19T00:43:23;5.10;84.80
43808;DHT22;29438;50.664;10.098;2023-05-19T00:45:49;5.00;84.90
43808;DHT22;29438;50.664;10.098;2023-05-19T00:48:15;5.00;85.10
43808;DHT22;29438;50.664;10.098;2023-05-19T00:50:41;4.90;85.10
43808;DHT22;29438;50.664;10.098;2023-05-19T00:53:07;4.90;85.20
43808;DHT22;29438;50.664;10.098;2023-05-19T00:55:33;4.80;85.30
43808;DHT22;29438;50.664;10.098;2023-05-19T00:58:01;4.80;85.40
43808;DHT22;29438;50.664;10.098;2023-05-19T01:00:28;4.80;85.60
43808;DHT22;29438;50.664;10.098;2023-05-19T01:02:54;4.80;85.60
43808;DHT22;29438;50.664;10.098;2023-05-19T01:05:20;4.70;85.60
43808;DHT22;29438;50.664;10.098;2023-05-19T01:07:46;4.70;85.70
43808;DHT22;29438;50.664;10.098;2023-05-19T01:10:12;4.60;85.60
43808;DHT22;29438;50.664;10.098;2023-05-19T01:12:38;4.50;85.60
43808;DHT22;29438;50.664;10.098;2023-05-19T01:15:05;4.40;85.60
43808;DHT22;29438;50.664;10.098;2023-05-19T01:17:59;4.40;85.80
43808;DHT22;29438;50.664;10.098;2023-05-19T01:20:35;4.30;85.60
43808;DHT22;29438;50.664;10.098;2023-05-19T01:31:24;4.30;86.10
43808;DHT22;29438;50.664;10.098;2023-05-19T01:33:52;4.20;86.30
43808;DHT22;29438;50.664;10.098;2023-05-19T01:36:20;4.20;86.50
43808;DHT22;29438;50.664;10.098;2023-05-19T01:38:49;4.10;86.70
43808;DHT22;29438;50.664;10.098;2023-05-19T01:41:18;4.10;86.90
43808;DHT22;29438;50.664;10.098;2023-05-19T01:43:44;4.00;87.00
43808;DHT22;29438;50.664;10.098;2023-05-19T01:46:10;3.90;86.80
43808;DHT22;29438;50.664;10.098;2023-05-19T01:48:36;3.90;87.00
43808;DHT22;29438;50.664;10.098;2023-05-19T01:51:02;3.90;87.20
43808;DHT22;29438;50.664;10.098;2023-05-19T01:53:28;3.80;87.10
43808;DHT22;29438;50.664;10.098;2023-05-19T01:55:55;3.80;87.30
43808;DHT22;29438;50.664;10.098;2023-05-19T02:11:51;3.70;87.80
43808;DHT22;29438;50.664;10.098;2023-05-19T02:14:19;3.50;87.90
43808;DHT22;29438;50.664;10.098;2023-05-19T02:16:47;3.50;88.00
43808;DHT22;29438;50.664;10.098;2023-05-19T02:19:24;3.50;88.10
43808;DHT22;29438;50.664;10.098;2023-05-19T02:21:50;3.50;88.20
43808;DHT22;29438;50.664;10.098;2023-05-19T02:24:17;3.50;88.20
43808;DHT22;29438;50.664;10.098;2023-05-19T02:26:42;3.40;88.10
43808;DHT22;29438;50.664;10.098;2023-05-19T02:29:08;3.60;88.30
43808;DHT22;29438;50.664;10.098;2023-05-19T02:31:34;3.50;88.30
43808;DHT22;29438;50.664;10.098;2023-05-19T02:33:59;3.50;88.40
43808;DHT22;29438;50.664;10.098;2023-05-19T02:36:24;3.50;88.40
43808;DHT22;29438;50.664;10.098;2023-05-19T02:38:51;3.60;88.60
43808;DHT22;29438;50.664;10.098;2023-05-19T02:41:16;3.70;88.60
43808;DHT22;29438;50.664;10.098;2023-05-19T02:43:42;3.60;88.50
43808;DHT22;29438;50.664;10.098;2023-05-19T02:46:07;3.50;88.40
43808;DHT22;29438;50.664;10.098;2023-05-19T02:48:33;3.50;88.50
43808;DHT22;29438;50.664;10.098;2023-05-19T02:50:58;3.50;88.50
43808;DHT22;29438;50.664;10.098;2023-05-19T02:53:23;3.50;88.50
43808;DHT22;29438;50.664;10.098;2023-05-19T02:55:49;3.60;88.30
43808;DHT22;29438;50.664;10.098;2023-05-19T02:58:15;3.70;88.10
43808;DHT22;29438;50.664;10.098;2023-05-19T03:00:41;3.70;87.90
43808;DHT22;29438;50.664;10.098;2023-05-19T03:03:08;3.70;87.70
43808;DHT22;29438;50.664;10.098;2023-05-19T03:05:34;3.70;87.70
43808;DHT22;29438;50.664;10.098;2023-05-19T03:08:00;3.70;87.80
43808;DHT22;29438;50.664;10.098;2023-05-19T03:10:25;3.70;87.70
43808;DHT22;29438;50.664;10.098;2023-05-19T03:12:51;3.80;87.60
43808;DHT22;29438;50.664;10.098;2023-05-19T03:15:17;3.90;87.50
43808;DHT22;29438;50.664;10.098;2023-05-19T03:17:43;3.90;87.50
43808;DHT22;29438;50.664;10.098;2023-05-19T03:20:09;3.90;87.60
43808;DHT22;29438;50.664;10.098;2023-05-19T03:22:35;3.90;87.40
43808;DHT22;29438;50.664;10.098;2023-05-19T03:25:01;3.90;87.60
43808;DHT22;29438;50.664;10.098;2023-05-19T03:27:28;3.80;87.60
43808;DHT22;29438;50.664;10.098;2023-05-19T03:29:53;4.00;87.70
43808;DHT22;29438;50.664;10.098;2023-05-19T03:32:19;4.00;87.90
43808;DHT22;29438;50.664;10.098;2023-05-19T03:34:44;4.10;87.80
43808;DHT22;29438;50.664;10.098;2023-05-19T03:37:10;4.20;87.80
43808;DHT22;29438;50.664;10.098;2023-05-19T03:39:35;4.20;87.70
43808;DHT22;29438;50.664;10.098;2023-05-19T03:42:01;4.30;87.70
43808;DHT22;29438;50.664;10.098;2023-05-19T03:44:26;4.30;87.50
43808;DHT22;29438;50.664;10.098;2023-05-19T03:46:52;4.30;87.60
43808;DHT22;29438;50.664;10.098;2023-05-19T03:49:17;4.30;87.50
43808;DHT22;29438;50.664;10.098;2023-05-19T03:51:43;4.30;87.40
43808;DHT22;29438;50.664;10.098;2023-05-19T03:54:08;4.40;87.50
43808;DHT22;29438;50.664;10.098;2023-05-19T03:56:37;4.40;87.20
43808;DHT22;29438;50.664;10.098;2023-05-19T03:59:03;4.60;87.30
43808;DHT22;29438;50.664;10.098;2023-05-19T04:01:32;4.80;87.10
43808;DHT22;29438;50.664;10.098;2023-05-19T04:03:57;4.90;86.90
43808;DHT22;29438;50.664;10.098;2023-05-19T04:06:23;5.20;86.40
43808;DHT22;29438;50.664;10.098;2023-05-19T04:08:48;5.40;85.80
43808;DHT22;29438;50.664;10.098;2023-05-19T04:11:14;5.60;84.80
43808;DHT22;29438;50.664;10.098;2023-05-19T04:13:40;5.80;84.70
43808;DHT22;29438;50.664;10.098;2023-05-19T04:16:06;6.20;84.00
43808;DHT22;29438;50.664;10.098;2023-05-19T04:18:31;6.60;82.90
43808;DHT22;29438;50.664;10.098;2023-05-19T04:20:57;7.00;81.80
43808;DHT22;29438;50.664;10.098;2023-05-19T04:23:22;7.20;80.90
43808;DHT22;29438;50.664;10.098;2023-05-19T04:25:48;7.60;79.70
43808;DHT22;29438;50.664;10.098;2023-05-19T04:28:14;7.80;78.10
43808;DHT22;29438;50.664;10.098;2023-05-19T04:30:39;7.70;77.60
43808;DHT22;29438;50.664;10.098;2023-05-19T04:33:06;8.10;76.90
43808;DHT22;29438;50.664;10.098;2023-05-19T04:35:32;8.90;75.60
43808;DHT22;29438;50.664;10.098;2023-05-19T04:37:57;10.20;71.70
43808;DHT22;29438;50.664;10.098;2023-05-19T04:40:23;10.80;67.50
43808;DHT22;29438;50.664;10.098;2023-05-19T04:42:49;11.00;66.40
43808;DHT22;29438;50.664;10.098;2023-05-19T04:45:16;11.00;65.60
43808;DHT22;29438;50.664;10.098;2023-05-19T04:47:42;11.10;65.80
43808;DHT22;29438;50.664;10.098;2023-05-19T04:50:09;11.00;66.00
43808;DHT22;29438;50.664;10.098;2023-05-19T04:52:35;10.80;66.30
43808;DHT22;29438;50.664;10.098;2023-05-19T04:55:02;10.70;66.40
43808;DHT22;29438;50.664;10.098;2023-05-19T04:57:27;10.20;68.80
43808;DHT22;29438;50.664;10.098;2023-05-19T04:59:53;10.60;68.60
43808;DHT22;29438;50.664;10.098;2023-05-19T05:02:24;11.10;68.10
43808;DHT22;29438;50.664;10.098;2023-05-19T05:04:51;11.80;66.20
43808;DHT22;29438;50.664;10.098;2023-05-19T05:07:19;12.60;64.10
43808;DHT22;29438;50.664;10.098;2023-05-19T05:09:46;13.10;61.30
43808;DHT22;29438;50.664;10.098;2023-05-19T05:12:13;13.70;59.40
43808;DHT22;29438;50.664;10.098;2023-05-19T05:14:39;13.50;59.40
43808;DHT22;29438;50.664;10.098;2023-05-19T05:17:05;14.00;58.60
43808;DHT22;29438;50.664;10.098;2023-05-19T05:19:32;15.20;54.80
43808;DHT22;29438;50.664;10.098;2023-05-19T05:21:58;15.80;52.70
43808;DHT22;29438;50.664;10.098;2023-05-19T05:24:24;16.10;51.20
43808;DHT22;29438;50.664;10.098;2023-05-19T05:26:50;16.20;52.20
43808;DHT22;29438;50.664;10.098;2023-05-19T05:29:16;15.70;54.50
43808;DHT22;29438;50.664;10.098;2023-05-19T05:31:44;14.90;54.70
43808;DHT22;29438;50.664;10.098;2023-05-19T05:34:10;15.10;54.80
43808;DHT22;29438;50.664;10.098;2023-05-19T05:36:35;14.90;53.50
43808;DHT22;29438;50.664;10.098;2023-05-19T05:39:01;15.70;50.90
43808;DHT22;29438;50.664;10.098;2023-05-19T05:41:27;15.70;48.60
43808;DHT22;29438;50.664;10.098;2023-05-19T05:44:02;15.40;51.00
43808;DHT22;29438;50.664;10.098;2023-05-19T05:46:28;15.20;50.90
43808;DHT22;29438;50.664;10.098;2023-05-19T05:48:54;16.20;48.30
43808;DHT22;29438;50.664;10.098;2023-05-19T05:51:21;16.70;47.90
43808;DHT22;29438;50.664;10.098;2023-05-19T05:53:52;16.30;48.40
43808;DHT22;29438;50.664;10.098;2023-05-19T05:56:18;16.10;49.60
43808;DHT22;29438;50.664;10.098;2023-05-19T05:58:45;17.10;47.80
43808;DHT22;29438;50.664;10.098;2023-05-19T06:01:11;16.90;47.00
43808;DHT22;29438;50.664;10.098;2023-05-19T06:03:39;17.30;46.60
43808;DHT22;29438;50.664;10.098;2023-05-19T06:06:05;17.50;46.70
43808;DHT22;29438;50.664;10.098;2023-05-19T06:08:30;16.60;47.60
43808;DHT22;29438;50.664;10.098;2023-05-19T06:10:56;16.80;49.20
43808;DHT22;29438;50.664;10.098;2023-05-19T06:13:23;17.40;46.80
43808;DHT22;29438;50.664;10.098;2023-05-19T06:15:50;18.50;44.50
43808;DHT22;29438;50.664;10.098;2023-05-19T06:18:18;18.70;43.40
43808;DHT22;29438;50.664;10.098;2023-05-19T06:20:44;18.90;42.10
43808;DHT22;29438;50.664;10.098;2023-05-19T06:23:09;19.20;42.90
43808;DHT22;29438;50.664;10.098;2023-05-19T06:25:35;20.20;41.50
43808;DHT22;29438;50.664;10.098;2023-05-19T06:28:00;19.20;41.40
43808;DHT22;29438;50.664;10.098;2023-05-19T06:30:26;18.20;43.40
43808;DHT22;29438;50.664;10.098;2023-05-19T06:32:51;17.90;45.30
43808;DHT22;29438;50.664;10.098;2023-05-19T06:35:17;18.60;43.60
43808;DHT22;29438;50.664;10.098;2023-05-19T06:37:42;19.00;43.90
43808;DHT22;29438;50.664;10.098;2023-05-19T06:40:08;20.00;41.20
43808;DHT22;29438;50.664;10.098;2023-05-19T06:42:34;18.60;42.30
43808;DHT22;29438;50.664;10.098;2023-05-19T06:45:00;17.90;44.20
43808;DHT22;29438;50.664;10.098;2023-05-19T06:47:25;18.10;44.80
43808;DHT22;29438;50.664;10.098;2023-05-19T06:49:51;18.20;44.00
43808;DHT22;29438;50.664;10.098;2023-05-19T06:52:20;18.90;43.20
43808;DHT22;29438;50.664;10.098;2023-05-19T06:54:47;18.90;42.80
43808;DHT22;29438;50.664;10.098;2023-05-19T06:57:13;18.80;43.10
43808;DHT22;29438;50.664;10.098;2023-05-19T06:59:38;18.70;45.10
43808;DHT22;29438;50.664;10.098;2023-05-19T07:02:06;18.70;42.30
43808;DHT22;29438;50.664;10.098;2023-05-19T07:04:32;19.60;41.20
43808;DHT22;29438;50.664;10.098;2023-05-19T07:06:57;18.40;44.60
43808;DHT22;29438;50.664;10.098;2023-05-19T07:09:23;18.20;42.40
43808;DHT22;29438;50.664;10.098;2023-05-19T07:11:48;18.30;44.60
43808;DHT22;29438;50.664;10.098;2023-05-19T07:14:14;18.80;43.80
43808;DHT22;29438;50.664;10.098;2023-05-19T07:16:39;18.80;43.30
43808;DHT22;29438;50.664;10.098;2023-05-19T07:19:05;19.20;42.30
43808;DHT22;29438;50.664;10.098;2023-05-19T07:21:31;18.70;41.90
43808;DHT22;29438;50.664;10.098;2023-05-19T07:23:56;19.00;42.10
43808;DHT22;29438;50.664;10.098;2023-05-19T07:26:22;19.50;43.60
43808;DHT22;29438;50.664;10.098;2023-05-19T07:28:47;20.10;41.70
43808;DHT22;29438;50.664;10.098;2023-05-19T07:31:13;19.40;41.90
43808;DHT22;29438;50.664;10.098;2023-05-19T07:33:39;20.70;39.90
43808;DHT22;29438;50.664;10.098;2023-05-19T07:36:05;21.10;38.70
43808;DHT22;29438;50.664;10.098;2023-05-19T07:38:31;20.60;38.70
43808;DHT22;29438;50.664;10.098;2023-05-19T07:40:59;20.80;40.60
43808;DHT22;29438;50.664;10.098;2023-05-19T07:43:25;20.70;40.50
43808;DHT22;29438;50.664;10.098;2023-05-19T07:45:50;20.20;39.30
43808;DHT22;29438;50.664;10.098;2023-05-19T07:48:19;19.90;40.60
43808;DHT22;29438;50.664;10.098;2023-05-19T07:50:50;19.00;42.00
43808;DHT22;29438;50.664;10.098;2023-05-19T07:53:17;19.10;42.50
43808;DHT22;29438;50.664;10.098;2023-05-19T07:55:42;19.20;40.80
43808;DHT22;29438;50.664;10.098;2023-05-19T07:58:08;18.70;43.20
43808;DHT22;29438;50.664;10.098;2023-05-19T08:00:33;16.90;45.70
43808;DHT22;29438;50.664;10.098;2023-05-19T08:02:59;16.70;47.90
43808;DHT22;29438;50.664;10.098;2023-05-19T08:05:24;16.60;45.90
43808;DHT22;29438;50.664;10.098;2023-05-19T08:07:50;16.10;47.70
43808;DHT22;29438;50.664;10.098;2023-05-19T08:10:16;17.10;45.90
43808;DHT22;29438;50.664;10.098;2023-05-19T08:12:42;17.70;44.70
43808;DHT22;29438;50.664;10.098;2023-05-19T08:15:09;19.00;41.80
43808;DHT22;29438;50.664;10.098;2023-05-19T08:17:37;20.00;40.60
43808;DHT22;29438;50.664;10.098;2023-05-19T08:20:04;19.30;43.30
43808;DHT22;29438;50.664;10.098;2023-05-19T08:22:31;19.00;43.00
43808;DHT22;29438;50.664;10.098;2023-05-19T08:24:57;20.30;40.70
43808;DHT22;29438;50.664;10.098;2023-05-19T08:27:23;20.30;38.30
43808;DHT22;29438;50.664;10.098;2023-05-19T08:29:48;21.50;39.10
43808;DHT22;29438;50.664;10.098;2023-05-19T08:32:14;21.50;37.50
43808;DHT22;29438;50.664;10.098;2023-05-19T08:34:39;22.20;37.60
43808;DHT22;29438;50.664;10.098;2023-05-19T08:37:05;21.50;36.70
43808;DHT22;29438;50.664;10.098;2023-05-19T08:39:31;21.20;37.20
43808;DHT22;29438;50.664;10.098;2023-05-19T08:41:58;19.70;40.00
43808;DHT22;29438;50.664;10.098;2023-05-19T08:44:25;19.10;40.20
43808;DHT22;29438;50.664;10.098;2023-05-19T08:46:53;18.00;42.70
43808;DHT22;29438;50.664;10.098;2023-05-19T08:49:22;18.20;44.20
43808;DHT22;29438;50.664;10.098;2023-05-19T08:52:20;19.40;40.30
43808;DHT22;29438;50.664;10.098;2023-05-19T08:55:08;19.00;41.10
43808;DHT22;29438;50.664;10.098;2023-05-19T08:57:37;19.20;42.00
43808;DHT22;29438;50.664;10.098;2023-05-19T09:00:04;20.10;38.60
43808;DHT22;29438;50.664;10.098;2023-05-19T09:02:39;21.40;36.50
43808;DHT22;29438;50.664;10.098;2023-05-19T09:05:06;19.50;39.90
43808;DHT22;29438;50.664;10.098;2023-05-19T09:07:31;19.30;41.40
43808;DHT22;29438;50.664;10.098;2023-05-19T09:10:00;19.20;42.00
43808;DHT22;29438;50.664;10.098;2023-05-19T09:12:26;18.00;44.10
43808;DHT22;29438;50.664;10.098;2023-05-19T09:14:52;18.60;42.50
43808;DHT22;29438;50.664;10.098;2023-05-19T09:17:18;20.00;39.40
43808;DHT22;29438;50.664;10.098;2023-05-19T09:19:43;20.40;39.10
43808;DHT22;29438;50.664;10.098;2023-05-19T09:22:14;19.00;39.30
43808;DHT22;29438;50.664;10.098;2023-05-19T09:24:40;19.50;39.20
43808;DHT22;29438;50.664;10.098;2023-05-19T09:27:06;19.70;39.70
43808;DHT22;29438;50.664;10.098;2023-05-19T09:29:32;18.90;40.40
43808;DHT22;29438;50.664;10.098;2023-05-19T09:31:58;18.40;40.80
43808;DHT22;29438;50.664;10.098;2023-05-19T09:34:26;17.20;42.90
43808;DHT22;29438;50.664;10.098;2023-05-19T09:36:52;17.90;44.30
43808;DHT22;29438;50.664;10.098;2023-05-19T09:39:22;17.60;45.90
43808;DHT22;29438;50.664;10.098;2023-05-19T09:41:54;17.70;43.70
43808;DHT22;29438;50.664;10.098;2023-05-19T09:44:23;17.90;42.00
43808;DHT22;29438;50.664;10.098;2023-05-19T09:46:50;17.70;45.80
43808;DHT22;29438;50.664;10.098;2023-05-19T09:49:25;17.70;47.90
43808;DHT22;29438;50.664;10.098;2023-05-19T09:51:57;17.70;43.70
43808;DHT22;29438;50.664;10.098;2023-05-19T09:54:24;17.60;44.40
43808;DHT22;29438;50.664;10.098;2023-05-19T09:59:24;17.90;44.70
43808;DHT22;29438;50.664;10.098;2023-05-19T10:01:53;17.60;45.40
43808;DHT22;29438;50.664;10.098;2023-05-19T10:04:20;17.20;45.60
43808;DHT22;29438;50.664;10.098;2023-05-19T10:06:49;17.60;44.20
43808;DHT22;29438;50.664;10.098;2023-05-19T10:09:22;17.90;43.40
43808;DHT22;29438;50.664;10.098;2023-05-19T10:11:51;18.10;43.40
43808;DHT22;29438;50.664;10.098;2023-05-19T10:14:21;18.00;42.10
43808;DHT22;29438;50.664;10.098;2023-05-19T10:16:49;18.70;46.60
43808;DHT22;29438;50.664;10.098;2023-05-19T10:19:15;17.70;46.00
43808;DHT22;29438;50.664;10.098;2023-05-19T10:21:41;17.10;47.80
43808;DHT22;29438;50.664;10.098;2023-05-19T10:24:07;17.40;45.50
43808;DHT22;29438;50.664;10.098;2023-05-19T10:26:34;17.90;43.70
43808;DHT22;29438;50.664;10.098;2023-05-19T10:29:01;18.90;43.30
43808;DHT22;29438;50.664;10.098;2023-05-19T10:31:27;19.60;41.50
43808;DHT22;29438;50.664;10.098;2023-05-19T10:36:46;17.50;45.90
43808;DHT22;29438;50.664;10.098;2023-05-19T10:39:24;17.60;45.30
43808;DHT22;29438;50.664;10.098;2023-05-19T10:46:57;17.20;45.20
43808;DHT22;29438;50.664;10.098;2023-05-19T10:49:23;17.10;45.50
43808;DHT22;29438;50.664;10.098;2023-05-19T10:51:49;17.10;47.60
43808;DHT22;29438;50.664;10.098;2023-05-19T10:54:15;16.80;45.10
43808;DHT22;29438;50.664;10.098;2023-05-19T10:56:43;16.70;45.40
43808;DHT22;29438;50.664;10.098;2023-05-19T10:59:30;16.50;46.00
43808;DHT22;29438;50.664;10.098;2023-05-19T11:01:56;17.00;46.60
43808;DHT22;29438;50.664;10.098;2023-05-19T11:04:48;17.80;47.10
43808;DHT22;29438;50.664;10.098;2023-05-19T11:07:17;18.00;44.60
43808;DHT22;29438;50.664;10.098;2023-05-19T11:09:48;17.70;45.80
43808;DHT22;29438;50.664;10.098;2023-05-19T11:12:19;17.90;44.30
43808;DHT22;29438;50.664;10.098;2023-05-19T11:14:45;17.20;47.40
43808;DHT22;29438;50.664;10.098;2023-05-19T11:17:14;17.60;48.20
43808;DHT22;29438;50.664;10.098;2023-05-19T11:19:51;17.40;45.30
43808;DHT22;29438;50.664;10.098;2023-05-19T11:22:22;17.20;46.50
43808;DHT22;29438;50.664;10.098;2023-05-19T11:24:48;16.70;46.30
43808;DHT22;29438;50.664;10.098;2023-05-19T11:32:33;17.80;47.60
43808;DHT22;29438;50.664;10.098;2023-05-19T11:35:00;18.40;44.50
43808;DHT22;29438;50.664;10.098;2023-05-19T11:37:26;18.10;44.90
43808;DHT22;29438;50.664;10.098;2023-05-19T11:39:53;18.10;42.20
43808;DHT22;29438;50.664;10.098;2023-05-19T11:42:19;18.10;43.40
43808;DHT22;29438;50.664;10.098;2023-05-19T11:44:45;18.40;43.60
43808;DHT22;29438;50.664;10.098;2023-05-19T11:47:12;18.70;43.30
43808;DHT22;29438;50.664;10.098;2023-05-19T11:49:38;18.10;46.90
43808;DHT22;29438;50.664;10.098;2023-05-19T11:52:03;17.40;47.20
43808;DHT22;29438;50.664;10.098;2023-05-19T11:54:31;17.80;45.10
43808;DHT22;29438;50.664;10.098;2023-05-19T11:56:59;17.80;45.80
43808;DHT22;29438;50.664;10.098;2023-05-19T11:59:30;17.90;43.80
43808;DHT22;29438;50.664;10.098;2023-05-19T12:01:57;17.70;44.50
43808;DHT22;29438;50.664;10.098;2023-05-19T12:04:22;17.00;47.80
43808;DHT22;29438;50.664;10.098;2023-05-19T12:06:48;17.50;47.80
43808;DHT22;29438;50.664;10.098;2023-05-19T12:09:14;17.70;47.50
43808;DHT22;29438;50.664;10.098;2023-05-19T12:11:39;17.60;48.70
43808;DHT22;29438;50.664;10.098;2023-05-19T12:14:06;17.60;46.50
43808;DHT22;29438;50.664;10.098;2023-05-19T12:16:35;17.50;46.40
43808;DHT22;29438;50.664;10.098;2023-05-19T12:19:04;18.20;46.20
43808;DHT22;29438;50.664;10.098;2023-05-19T12:21:30;17.50;45.60
43808;DHT22;29438;50.664;10.098;2023-05-19T12:23:57;17.50;45.80
43808;DHT22;29438;50.664;10.098;2023-05-19T12:26:23;17.30;46.20
43808;DHT22;29438;50.664;10.098;2023-05-19T12:28:49;17.60;45.30
43808;DHT22;29438;50.664;10.098;2023-05-19T12:31:16;17.80;44.10
43808;DHT22;29438;50.664;10.098;2023-05-19T12:33:42;18.30;44.10
43808;DHT22;29438;50.664;10.098;2023-05-19T12:36:08;17.20;45.90
43808;DHT22;29438;50.664;10.098;2023-05-19T12:38:35;17.10;47.10
43808;DHT22;29438;50.664;10.098;2023-05-19T12:41:04;16.80;46.80
43808;DHT22;29438;50.664;10.098;2023-05-19T12:43:31;17.20;46.70
43808;DHT22;29438;50.664;10.098;2023-05-19T12:45:57;17.10;47.00
43808;DHT22;29438;50.664;10.098;2023-05-19T12:48:23;17.70;45.70
43808;DHT22;29438;50.664;10.098;2023-05-19T12:50:50;17.50;45.00
43808;DHT22;29438;50.664;10.098;2023-05-19T12:53:17;17.30;45.90
43808;DHT22;29438;50.664;10.098;2023-05-19T12:55:44;17.70;45.70
43808;DHT22;29438;50.664;10.098;2023-05-19T12:58:10;17.40;46.40
43808;DHT22;29438;50.664;10.098;2023-05-19T13:00:41;17.10;45.60
43808;DHT22;29438;50.664;10.098;2023-05-19T13:03:14;17.30;45.50
43808;DHT22;29438;50.664;10.098;2023-05-19T13:05:40;18.10;47.00
43808;DHT22;29438;50.664;10.098;2023-05-19T13:08:14;17.70;44.40
43808;DHT22;29438;50.664;10.098;2023-05-19T13:10:41;17.70;44.80
43808;DHT22;29438;50.664;10.098;2023-05-19T13:13:08;17.40;44.30
43808;DHT22;29438;50.664;10.098;2023-05-19T13:15:39;17.50;44.90
43808;DHT22;29438;50.664;10.098;2023-05-19T13:18:07;17.50;45.40
43808;DHT22;29438;50.664;10.098;2023-05-19T13:20:33;17.70;45.00
43808;DHT22;29438;50.664;10.098;2023-05-19T13:22:59;17.30;46.60
43808;DHT22;29438;50.664;10.098;2023-05-19T13:25:25;17.00;47.10
43808;DHT22;29438;50.664;10.098;2023-05-19T13:27:51;17.20;46.50
43808;DHT22;29438;50.664;10.098;2023-05-19T13:30:17;17.50;45.00
43808;DHT22;29438;50.664;10.098;2023-05-19T13:32:44;17.30;47.00
43808;DHT22;29438;50.664;10.098;2023-05-19T13:35:10;17.50;45.20
43808;DHT22;29438;50.664;10.098;2023-05-19T13:37:36;17.50;46.90
43808;DHT22;29438;50.664;10.098;2023-05-19T13:40:04;16.70;46.00
43808;DHT22;29438;50.664;10.098;2023-05-19T13:42:31;16.60;46.00
43808;DHT22;29438;50.664;10.098;2023-05-19T13:44:57;16.50;45.40
43808;DHT22;29438;50.664;10.098;2023-05-19T13:47:22;16.80;44.80
43808;DHT22;29438;50.664;10.098;2023-05-19T13:49:48;17.30;45.70
43808;DHT22;29438;50.664;10.098;2023-05-19T13:52:14;17.70;43.80
43808;DHT22;29438;50.664;10.098;2023-05-19T13:54:39;17.20;43.40
43808;DHT22;29438;50.664;10.098;2023-05-19T13:57:05;16.90;45.60
43808;DHT22;29438;50.664;10.098;2023-05-19T13:59:31;16.80;44.80
43808;DHT22;29438;50.664;10.098;2023-05-19T14:01:57;16.70;45.40
43808;DHT22;29438;50.664;10.098;2023-05-19T14:04:22;16.90;45.00
43808;DHT22;29438;50.664;10.098;2023-05-19T14:06:49;17.20;45.80
43808;DHT22;29438;50.664;10.098;2023-05-19T14:09:15;17.50;46.10
43808;DHT22;29438;50.664;10.098;2023-05-19T14:11:41;17.10;45.00
43808;DHT22;29438;50.664;10.098;2023-05-19T14:14:07;17.00;46.90
43808;DHT22;29438;50.664;10.098;2023-05-19T14:16:32;17.10;45.80
43808;DHT22;29438;50.664;10.098;2023-05-19T14:18:58;17.50;46.60
43808;DHT22;29438;50.664;10.098;2023-05-19T14:21:24;17.60;44.50
43808;DHT22;29438;50.664;10.098;2023-05-19T14:23:49;16.80;45.30
43808;DHT22;29438;50.664;10.098;2023-05-19T14:26:15;16.80;44.60
43808;DHT22;29438;50.664;10.098;2023-05-19T14:28:41;16.40;45.10
43808;DHT22;29438;50.664;10.098;2023-05-19T14:31:13;16.50;44.70
43808;DHT22;29438;50.664;10.098;2023-05-19T14:33:39;16.70;46.10
43808;DHT22;29438;50.664;10.098;2023-05-19T14:36:08;16.50;44.40
43808;DHT22;29438;50.664;10.098;2023-05-19T14:38:34;16.30;47.60
43808;DHT22;29438;50.664;10.098;2023-05-19T14:41:00;16.40;46.50
43808;DHT22;29438;50.664;10.098;2023-05-19T14:43:25;16.10;47.80
43808;DHT22;29438;50.664;10.098;2023-05-19T14:45:51;16.00;48.20
43808;DHT22;29438;50.664;10.098;2023-05-19T14:48:17;16.10;48.70
43808;DHT22;29438;50.664;10.098;2023-05-19T14:50:42;15.90;50.00
43808;DHT22;29438;50.664;10.098;2023-05-19T14:53:09;16.00;49.10
43808;DHT22;29438;50.664;10.098;2023-05-19T14:55:35;15.90;48.90
43808;DHT22;29438;50.664;10.098;2023-05-19T14:58:00;15.90;50.20
43808;DHT22;29438;50.664;10.098;2023-05-19T15:00:26;15.90;49.20
43808;DHT22;29438;50.664;10.098;2023-05-19T15:02:52;15.80;48.30
43808;DHT22;29438;50.664;10.098;2023-05-19T15:05:18;15.70;48.30
43808;DHT22;29438;50.664;10.098;2023-05-19T15:07:44;15.80;48.50
43808;DHT22;29438;50.664;10.098;2023-05-19T15:10:09;15.90;47.70
43808;DHT22;29438;50.664;10.098;2023-05-19T15:12:35;15.80;49.40
43808;DHT22;29438;50.664;10.098;2023-05-19T15:15:00;15.90;49.40
43808;DHT22;29438;50.664;10.098;2023-05-19T15:17:26;15.70;47.70
43808;DHT22;29438;50.664;10.098;2023-05-19T15:19:51;15.60;47.50
43808;DHT22;29438;50.664;10.098;2023-05-19T15:22:17;15.60;46.00
43808;DHT22;29438;50.664;10.098;2023-05-19T15:24:42;15.40;49.60
43808;DHT22;29438;50.664;10.098;2023-05-19T15:27:08;15.60;48.90
43808;DHT22;29438;50.664;10.098;2023-05-19T15:29:33;15.70;49.30
43808;DHT22;29438;50.664;10.098;2023-05-19T15:32:00;15.60;48.80
43808;DHT22;29438;50.664;10.098;2023-05-19T15:34:25;15.50;48.60
43808;DHT22;29438;50.664;10.098;2023-05-19T15:36:51;15.50;51.30
43808;DHT22;29438;50.664;10.098;2023-05-19T15:39:16;15.50;48.20
43808;DHT22;29438;50.664;10.098;2023-05-19T15:41:42;15.40;50.20
43808;DHT22;29438;50.664;10.098;2023-05-19T15:44:08;15.50;49.40
43808;DHT22;29438;50.664;10.098;2023-05-19T15:46:33;15.50;49.00
43808;DHT22;29438;50.664;10.098;2023-05-19T15:48:59;15.50;48.00
43808;DHT22;29438;50.664;10.098;2023-05-19T15:51:24;15.50;48.30
43808;DHT22;29438;50.664;10.098;2023-05-19T15:53:50;15.40;48.90
43808;DHT22;29438;50.664;10.098;2023-05-19T15:56:16;15.50;49.40